Time;durP1;ratioP1;P1;durP2;ratioP2;P2;SDS_P1;SDS_P2;PMS_P1;PMS_P2;Temp;Humidity;BMP_temperature;BMP_pressure;BME280_temperature;BME280_humidity;BME280_pressure;Samples;Min_cycle;Max_cycle;Signal;HPM_P1;HPM_P2
2022/08/26 00:13:03;;;;;;;;;;;;;;;22.42;65.11;98902.09;4944997;29;1703;-58
2022/08/26 00:21:56;;;;;;;;;;;;;;;22.39;65.09;98894.66;4954224;28;623;-60
2022/08/26 00:24:23;;;;;;;;;;;;;;;22.40;65.04;98884.94;4956938;29;882;-60
2022/08/26 00:26:49;;;;;;;;;;;;;;;22.34;65.42;98882.09;4956912;29;777;-60
2022/08/26 00:29:15;;;;;;;;;;;;;;;22.26;66.15;98875.41;4956689;29;1972;-60
2022/08/26 00:31:40;;;;;;;;;;;;;;;22.22;66.00;98881.28;4956646;29;931;-60
2022/08/26 00:34:07;;;;;;;;;;;;;;;22.21;66.28;98878.94;4956617;29;821;-61
2022/08/26 00:36:34;;;;;;;;;;;;;;;22.10;67.21;98876.84;4956628;29;821;-60
2022/08/26 00:51:16;;;;;;;;;;;;;;;22.20;67.40;98869.72;4956684;29;667;-60
2022/08/26 00:53:46;;;;;;;;;;;;;;;22.13;67.35;98866.66;4956487;29;820;-60
2022/08/26 00:56:18;;;;;;;;;;;;;;;22.03;67.91;98863.25;4956465;29;837;-60
2022/08/26 00:58:46;;;;;;;;;;;;;;;22.00;68.18;98864.28;4956467;29;880;-60
2022/08/26 01:01:14;;;;;;;;;;;;;;;22.09;67.69;98860.47;4956185;29;845;-60
2022/08/26 01:06:45;;;;;;;;;;;;;;;22.19;66.15;98865.38;4926332;29;1074;-60
2022/08/26 01:09:12;;;;;;;;;;;;;;;22.22;66.29;98853.13;4955927;29;1948;-60
2022/08/26 01:11:40;;;;;;;;;;;;;;;22.20;65.79;98854.91;4955597;29;1272;-60
2022/08/26 01:17:10;;;;;;;;;;;;;;;22.16;65.03;98863.56;4955856;29;1390;-60
2022/08/26 01:19:40;;;;;;;;;;;;;;;22.17;64.95;98862.31;4955784;29;867;-60
2022/08/26 01:22:11;;;;;;;;;;;;;;;22.19;64.36;98868.19;4955798;29;805;-60
2022/08/26 01:24:38;;;;;;;;;;;;;;;22.20;63.97;98864.09;4955690;29;903;-60
2022/08/26 01:27:07;;;;;;;;;;;;;;;22.19;63.84;98862.56;4955659;29;856;-60
2022/08/26 01:29:35;;;;;;;;;;;;;;;22.17;63.49;98855.91;4955557;29;1979;-60
2022/08/26 01:32:01;;;;;;;;;;;;;;;22.16;63.28;98854.38;4955223;28;809;-60
2022/08/26 01:34:34;;;;;;;;;;;;;;;22.16;63.26;98849.50;4955539;29;891;-60
2022/08/26 01:40:05;;;;;;;;;;;;;;;22.17;62.50;98839.78;4955465;29;818;-60
2022/08/26 01:42:41;;;;;;;;;;;;;;;22.15;62.48;98833.91;4955465;29;797;-60
2022/08/26 01:45:13;;;;;;;;;;;;;;;22.18;62.11;98840.56;4955486;29;813;-60
2022/08/26 01:47:42;;;;;;;;;;;;;;;22.20;61.65;98824.69;4955342;29;871;-60
2022/08/26 01:50:24;;;;;;;;;;;;;;;22.21;61.57;98826.25;4955124;29;1945;-60
2022/08/26 01:52:53;;;;;;;;;;;;;;;22.16;61.44;98807.28;4955321;29;837;-60
2022/08/26 01:55:21;;;;;;;;;;;;;;;22.10;61.63;98792.44;4955174;29;817;-60
2022/08/26 01:57:51;;;;;;;;;;;;;;;22.05;61.62;98792.44;4955095;29;864;-60
2022/08/26 02:00:25;;;;;;;;;;;;;;;21.96;61.58;98790.59;4955174;29;895;-61
2022/08/26 02:15:15;;;;;;;;;;;;;;;21.86;61.75;98808.97;4933374;29;1188;-60
2022/08/26 02:17:45;;;;;;;;;;;;;;;21.84;61.73;98814.34;4954784;29;876;-60
2022/08/26 02:20:17;;;;;;;;;;;;;;;21.77;62.20;98852.91;4954728;29;868;-60
2022/08/26 02:22:46;;;;;;;;;;;;;;;21.62;62.24;98874.81;4954715;29;912;-60
2022/08/26 02:25:23;;;;;;;;;;;;;;;21.50;62.68;98892.84;4954612;29;841;-60
2022/08/26 02:28:12;;;;;;;;;;;;;;;21.48;62.61;98896.16;4954613;29;821;-60
2022/08/26 02:30:39;;;;;;;;;;;;;;;21.50;62.72;98893.63;4954540;29;1970;-60
2022/08/26 02:33:07;;;;;;;;;;;;;;;21.43;62.87;98901.75;4954454;29;849;-60
2022/08/26 02:35:35;;;;;;;;;;;;;;;21.21;63.69;98892.63;4954403;29;851;-60
2022/08/26 02:38:02;;;;;;;;;;;;;;;20.86;65.46;98886.41;4954392;29;899;-60
2022/08/26 02:40:31;;;;;;;;;;;;;;;20.70;66.10;98877.31;4937030;29;1222;-60
2022/08/26 02:42:58;;;;;;;;;;;;;;;20.65;66.33;98877.25;4954223;29;805;-60
2022/08/26 02:45:26;;;;;;;;;;;;;;;20.63;66.55;98882.59;4936453;29;920;-60
2022/08/26 02:47:53;;;;;;;;;;;;;;;20.73;66.54;98881.94;4936952;29;1333;-60
2022/08/26 02:50:20;;;;;;;;;;;;;;;20.95;65.29;98877.81;4954060;29;1968;-60
2022/08/26 02:52:47;;;;;;;;;;;;;;;21.15;64.71;98883.34;4936924;29;1313;-60
2022/08/26 02:55:15;;;;;;;;;;;;;;;21.33;63.81;98870.22;4936814;29;1373;-60
2022/08/26 02:57:41;;;;;;;;;;;;;;;21.51;63.02;98877.53;4936820;29;1226;-61
2022/08/26 03:00:09;;;;;;;;;;;;;;;21.61;62.03;98890.91;4936673;29;1301;-60
2022/08/26 03:02:36;;;;;;;;;;;;;;;21.71;61.06;98896.31;4936675;29;1448;-60
2022/08/26 03:05:03;;;;;;;;;;;;;;;21.76;60.86;98904.81;4953942;29;861;-60
2022/08/26 03:07:29;;;;;;;;;;;;;;;21.77;60.43;98899.94;4936627;29;1368;-60
2022/08/26 03:10:15;;;;;;;;;;;;;;;21.77;60.15;98900.72;4953607;29;1945;-61
2022/08/26 03:13:01;;;;;;;;;;;;;;;21.81;59.57;98898.44;4953818;29;865;-60
2022/08/26 03:15:28;;;;;;;;;;;;;;;21.91;58.66;98895.41;4952571;29;1405;-60
2022/08/26 03:17:55;;;;;;;;;;;;;;;21.99;58.24;98902.88;4953737;29;907;-60
2022/08/26 03:20:26;;;;;;;;;;;;;;;22.01;58.32;98899.56;4953963;29;891;-60
2022/08/26 03:23:06;;;;;;;;;;;;;;;21.95;58.48;98907.97;4953673;29;1103;-60
2022/08/26 03:25:32;;;;;;;;;;;;;;;21.95;58.07;98896.72;4953633;29;864;-60
2022/08/26 03:27:59;;;;;;;;;;;;;;;21.97;58.21;98888.53;4953651;29;805;-60
2022/08/26 03:30:40;;;;;;;;;;;;;;;21.97;58.27;98888.53;4953512;29;1972;-60
2022/08/26 03:33:11;;;;;;;;;;;;;;;21.97;58.00;98876.53;4953575;29;818;-60
2022/08/26 03:35:39;;;;;;;;;;;;;;;22.02;57.68;98881.44;4953761;29;864;-60
2022/08/26 03:38:07;;;;;;;;;;;;;;;22.06;57.21;98896.00;4953543;29;869;-60
2022/08/26 03:50:03;;;;;;;;;;;;;;;22.04;56.59;98932.34;4953593;29;1954;-60
2022/08/26 03:52:30;;;;;;;;;;;;;;;22.02;56.37;98927.22;4953363;29;821;-60
2022/08/26 03:54:57;;;;;;;;;;;;;;;22.03;56.29;98916.72;4936306;28;1345;-60
2022/08/26 03:57:55;;;;;;;;;;;;;;;22.07;55.91;98914.44;4957328;29;821;-60
2022/08/26 04:00:22;;;;;;;;;;;;;;;22.12;55.43;98915.75;4957259;29;889;-60
2022/08/26 04:02:49;;;;;;;;;;;;;;;22.18;54.94;98911.69;4957244;29;816;-60
2022/08/26 04:05:18;;;;;;;;;;;;;;;22.29;54.93;98907.41;4957238;29;848;-60
2022/08/26 04:07:47;;;;;;;;;;;;;;;22.35;54.40;98916.66;4939748;29;1190;-60
2022/08/26 04:10:14;;;;;;;;;;;;;;;22.39;54.46;98920.00;4956993;29;1895;-60
2022/08/26 04:12:41;;;;;;;;;;;;;;;22.46;54.08;98921.56;4957113;29;797;-60
2022/08/26 04:15:09;;;;;;;;;;;;;;;22.50;54.03;98922.84;4957154;29;896;-60
2022/08/26 04:20:50;;;;;;;;;;;;;;;22.64;53.55;98935.19;4956582;29;1009;-63
2022/08/26 04:26:37;;;;;;;;;;;;;;;22.88;52.99;98933.97;4956886;29;624;-60
2022/08/26 04:29:16;;;;;;;;;;;;;;;22.98;52.76;98929.63;4956986;29;1907;-60
2022/08/26 04:31:46;;;;;;;;;;;;;;;23.07;52.52;98931.50;4939422;29;1360;-60
2022/08/26 04:34:13;;;;;;;;;;;;;;;23.14;52.20;98933.78;4956625;29;920;-60
2022/08/26 04:36:41;;;;;;;;;;;;;;;23.20;51.66;98935.34;4956507;29;832;-60
2022/08/26 04:39:10;;;;;;;;;;;;;;;23.22;51.70;98929.19;4939295;29;1415;-60
2022/08/26 04:41:40;;;;;;;;;;;;;;;23.22;51.67;98929.19;4956511;29;841;-60
2022/08/26 04:44:06;;;;;;;;;;;;;;;23.24;51.44;98918.94;4956481;29;883;-60
2022/08/26 04:58:44;;;;;;;;;;;;;;;23.31;51.60;98923.31;4956569;29;662;-60
2022/08/26 05:01:11;;;;;;;;;;;;;;;23.35;51.75;98923.06;4956206;29;889;-59
2022/08/26 05:03:41;;;;;;;;;;;;;;;23.39;51.63;98924.34;4956136;29;817;-60
2022/08/26 05:06:11;;;;;;;;;;;;;;;23.44;52.01;98929.19;4956479;29;892;-60
2022/08/26 05:08:46;;;;;;;;;;;;;;;23.50;51.79;98934.06;4955327;28;915;-59
2022/08/26 05:11:22;;;;;;;;;;;;;;;23.58;51.84;98937.94;4956293;29;1074;-59
2022/08/26 05:14:08;;;;;;;;;;;;;;;23.69;51.70;98942.78;4955907;29;911;-60
2022/08/26 05:16:34;;;;;;;;;;;;;;;23.81;51.40;98939.47;4955714;29;1368;-60
2022/08/26 05:19:02;;;;;;;;;;;;;;;23.98;51.00;98953.56;4955862;29;810;-60
2022/08/26 05:21:29;;;;;;;;;;;;;;;24.15;50.84;98947.84;4938517;29;1373;-60
2022/08/26 05:23:56;;;;;;;;;;;;;;;24.31;50.16;98948.34;4956039;29;793;-60
2022/08/26 05:26:25;;;;;;;;;;;;;;;24.38;49.91;98945.72;4938488;29;1373;-59
2022/08/26 05:28:53;;;;;;;;;;;;;;;24.44;50.08;98943.66;4938412;29;2053;-59
2022/08/26 05:31:22;;;;;;;;;;;;;;;24.53;49.77;98956.75;4955617;29;829;-59
2022/08/26 05:33:49;;;;;;;;;;;;;;;24.65;50.00;98949.75;4955567;29;867;-60
2022/08/26 05:36:17;;;;;;;;;;;;;;;24.79;49.79;98956.38;4955463;29;801;-60
2022/08/26 05:38:45;;;;;;;;;;;;;;;24.89;49.29;98962.47;4955517;29;809;-59
2022/08/26 05:41:21;;;;;;;;;;;;;;;25.04;48.79;98965.72;4938164;29;1754;-60
2022/08/26 05:43:48;;;;;;;;;;;;;;;25.17;47.76;98956.66;4938185;29;1265;-60
2022/08/26 05:46:16;;;;;;;;;;;;;;;25.44;47.75;98960.59;4938227;29;1317;-60
2022/08/26 05:48:43;;;;;;;;;;;;;;;25.65;46.98;98960.19;4938131;29;1301;-60
2022/08/26 05:51:11;;;;;;;;;;;;;;;25.75;46.02;98960.59;4955278;29;1882;-60
2022/08/26 05:53:39;;;;;;;;;;;;;;;25.97;45.90;98960.44;4938056;29;1392;-60
2022/08/26 05:56:07;;;;;;;;;;;;;;;26.00;44.85;98964.25;4938056;29;1333;-58
2022/08/26 05:58:35;;;;;;;;;;;;;;;25.99;44.80;98962.72;4955061;29;860;-59
2022/08/26 06:01:09;;;;;;;;;;;;;;;25.95;44.42;98973.59;4937908;29;1191;-59
2022/08/26 06:03:37;;;;;;;;;;;;;;;25.95;44.48;98971.53;4937762;29;1404;-59
2022/08/26 06:06:06;;;;;;;;;;;;;;;25.99;43.41;98966.34;4937664;29;1472;-60
2022/08/26 06:08:33;;;;;;;;;;;;;;;26.03;43.54;98975.31;4954970;29;810;-60
2022/08/26 06:11:01;;;;;;;;;;;;;;;25.94;43.70;98975.63;4937642;29;1879;-60
2022/08/26 06:13:29;;;;;;;;;;;;;;;25.90;44.02;98980.06;4955657;29;770;-58
2022/08/26 06:15:57;;;;;;;;;;;;;;;25.85;44.20;98982.38;4934391;29;1367;-59
2022/08/26 06:18:33;;;;;;;;;;;;;;;25.69;43.59;98957.84;4935306;29;871;-59
2022/08/26 06:21:02;;;;;;;;;;;;;;;25.90;43.38;98982.88;4935171;29;1164;-59
2022/08/26 06:26:15;;;;;;;;;;;;;;;26.74;41.46;98981.25;4935561;29;621;-60
2022/08/26 06:28:43;;;;;;;;;;;;;;;27.04;40.77;98990.34;4934161;29;1325;-59
2022/08/26 06:31:10;;;;;;;;;;;;;;;27.13;40.37;98999.78;4935431;29;1922;-60
2022/08/26 06:33:37;;;;;;;;;;;;;;;27.07;40.29;98994.19;4950077;28;1170;-60
2022/08/26 06:36:04;;;;;;;;;;;;;;;27.01;40.30;99005.63;4935289;29;828;-60
2022/08/26 06:38:31;;;;;;;;;;;;;;;26.84;40.87;99003.00;4933953;29;1447;-58
2022/08/26 06:40:59;;;;;;;;;;;;;;;26.77;40.76;98997.94;4933928;29;1530;-59
2022/08/26 06:43:27;;;;;;;;;;;;;;;26.80;41.13;99001.75;4935195;29;852;-60
2022/08/26 06:46:00;;;;;;;;;;;;;;;26.88;40.62;99006.31;4935111;29;846;-60
2022/08/26 06:48:27;;;;;;;;;;;;;;;27.10;40.72;98998.81;4933827;29;1284;-60
2022/08/26 06:51:03;;;;;;;;;;;;;;;27.59;39.92;98998.59;4933654;29;1932;-60
2022/08/26 06:53:30;;;;;;;;;;;;;;;27.85;39.33;98994.31;4933890;29;884;-61
2022/08/26 06:55:57;;;;;;;;;;;;;;;28.18;38.80;98998.63;4934947;29;872;-60
2022/08/26 06:58:24;;;;;;;;;;;;;;;28.35;38.29;98989.81;4934962;29;797;-57
2022/08/26 07:00:51;;;;;;;;;;;;;;;28.84;38.00;98994.28;4934848;29;879;-58
2022/08/26 07:03:18;;;;;;;;;;;;;;;30.04;36.26;99003.16;4933761;29;821;-58
2022/08/26 07:05:46;;;;;;;;;;;;;;;31.61;34.37;99004.88;4934719;29;880;-58
2022/08/26 07:08:13;;;;;;;;;;;;;;;32.42;32.35;99002.41;4934802;29;898;-58
2022/08/26 07:10:41;;;;;;;;;;;;;;;32.44;32.26;99005.47;4934779;29;1967;-58
2022/08/26 07:13:08;;;;;;;;;;;;;;;31.53;32.68;99002.00;4933365;29;1387;-58
2022/08/26 07:15:39;;;;;;;;;;;;;;;30.62;34.16;99009.63;4937639;29;1295;-58
2022/08/26 07:18:07;;;;;;;;;;;;;;;30.19;34.51;99013.13;4953761;29;880;-58
2022/08/26 07:20:39;;;;;;;;;;;;;;;30.03;35.62;99017.94;4953784;29;829;-58
2022/08/26 07:23:06;;;;;;;;;;;;;;;30.11;34.92;99016.69;4936366;29;1364;-58
2022/08/26 07:25:34;;;;;;;;;;;;;;;30.07;35.57;99012.66;4953641;29;849;-58
2022/08/26 07:28:01;;;;;;;;;;;;;;;30.44;35.37;99014.28;4954004;29;829;-58
2022/08/26 07:30:28;;;;;;;;;;;;;;;31.17;34.19;99013.50;4953378;28;1902;-58
2022/08/26 07:32:56;;;;;;;;;;;;;;;32.23;32.58;99015.00;4953741;29;856;-58
2022/08/26 07:35:24;;;;;;;;;;;;;;;33.00;30.94;99014.06;4953648;29;888;-58
2022/08/26 07:37:51;;;;;;;;;;;;;;;32.89;30.45;99021.75;4953702;29;845;-58
2022/08/26 07:40:18;;;;;;;;;;;;;;;32.40;31.27;99019.38;4936323;29;1384;-58
2022/08/26 07:42:45;;;;;;;;;;;;;;;31.88;31.56;99017.47;4953648;29;793;-58
2022/08/26 07:45:12;;;;;;;;;;;;;;;31.12;32.23;99021.66;4936315;29;1293;-58
2022/08/26 07:47:39;;;;;;;;;;;;;;;30.97;32.72;99023.72;4953654;29;836;-58
2022/08/26 07:50:07;;;;;;;;;;;;;;;31.41;32.36;99013.00;4953475;29;1930;-58
2022/08/26 07:52:37;;;;;;;;;;;;;;;31.30;32.98;99010.50;4936765;29;1666;-58
2022/08/26 07:55:06;;;;;;;;;;;;;;;31.03;32.58;99016.50;4936647;29;888;-58
2022/08/26 07:57:33;;;;;;;;;;;;;;;30.36;33.56;99013.44;4953325;29;824;-58
2022/08/26 08:00:00;;;;;;;;;;;;;;;30.06;34.33;99016.81;4953337;29;884;-58
2022/08/26 08:02:28;;;;;;;;;;;;;;;29.95;34.63;99014.28;4953239;29;900;-58
2022/08/26 08:04:56;;;;;;;;;;;;;;;29.92;34.63;99008.38;4935980;29;1230;-58
2022/08/26 08:07:23;;;;;;;;;;;;;;;30.31;34.31;99005.84;4936040;29;1360;-58
2022/08/26 08:09:50;;;;;;;;;;;;;;;31.18;33.39;99004.38;4935887;29;1910;-60
2022/08/26 08:12:18;;;;;;;;;;;;;;;32.02;32.45;99000.16;4953637;29;1087;-58
2022/08/26 08:14:46;;;;;;;;;;;;;;;32.04;31.43;98997.50;4953244;29;828;-58
2022/08/26 08:17:14;;;;;;;;;;;;;;;31.60;32.15;98998.41;4952928;29;1383;-58
2022/08/26 08:19:40;;;;;;;;;;;;;;;31.30;32.27;98994.16;4935942;29;1191;-58
2022/08/26 08:22:07;;;;;;;;;;;;;;;30.85;32.76;98998.31;4953112;29;860;-58
2022/08/26 08:24:34;;;;;;;;;;;;;;;30.70;33.34;98999.03;4953057;29;805;-58
2022/08/26 08:27:02;;;;;;;;;;;;;;;30.97;32.86;98992.31;4935786;29;2241;-58
2022/08/26 08:29:29;;;;;;;;;;;;;;;31.41;33.04;98992.25;4952967;29;1903;-58
2022/08/26 08:31:56;;;;;;;;;;;;;;;32.10;31.78;98992.34;4953008;29;841;-58
2022/08/26 08:34:27;;;;;;;;;;;;;;;32.30;30.93;98994.22;4935612;29;1368;-58
2022/08/26 08:36:54;;;;;;;;;;;;;;;32.11;29.97;98994.66;4952979;29;845;-58
2022/08/26 08:39:21;;;;;;;;;;;;;;;31.53;30.90;98996.31;4952993;29;821;-58
2022/08/26 08:42:03;;;;;;;;;;;;;;;31.51;31.64;98990.41;4952963;28;1176;-58
2022/08/26 08:44:32;;;;;;;;;;;;;;;31.78;30.49;98993.66;4956500;29;817;-58
2022/08/26 08:47:04;;;;;;;;;;;;;;;31.85;30.60;98986.41;4939217;29;1301;-58
2022/08/26 08:49:33;;;;;;;;;;;;;;;32.11;30.17;98991.00;4956340;29;1966;-58
2022/08/26 08:52:05;;;;;;;;;;;;;;;32.48;29.56;98995.16;4939194;29;1203;-58
2022/08/26 08:54:33;;;;;;;;;;;;;;;32.93;28.73;98996.34;4956587;29;825;-58
2022/08/26 08:57:03;;;;;;;;;;;;;;;33.25;28.70;98989.16;4939061;29;1230;-58
2022/08/26 08:59:35;;;;;;;;;;;;;;;33.01;27.98;98984.88;4956289;29;860;-58
2022/08/26 09:02:08;;;;;;;;;;;;;;;33.19;28.15;98991.47;4938804;29;1357;-58
2022/08/26 09:04:34;;;;;;;;;;;;;;;33.29;28.56;98986.66;4938896;29;1357;-58
2022/08/26 09:07:02;;;;;;;;;;;;;;;33.23;28.93;98991.84;4938813;29;1316;-58
2022/08/26 09:09:33;;;;;;;;;;;;;;;33.33;28.43;98994.84;4956011;29;1887;-58
2022/08/26 09:12:01;;;;;;;;;;;;;;;32.99;28.78;98996.16;4939117;29;1352;-58
2022/08/26 09:14:28;;;;;;;;;;;;;;;33.00;29.50;98988.31;4938798;29;1340;-58
2022/08/26 09:17:15;;;;;;;;;;;;;;;33.02;29.13;98983.53;4955802;29;1488;-58
2022/08/26 09:19:48;;;;;;;;;;;;;;;33.13;28.96;98988.06;4956205;29;817;-58
2022/08/26 09:22:35;;;;;;;;;;;;;;;33.25;28.82;98989.16;4955876;29;884;-58
2022/08/26 09:25:05;;;;;;;;;;;;;;;33.40;28.65;98988.31;4955639;29;1076;-59
2022/08/26 09:27:42;;;;;;;;;;;;;;;32.92;28.87;98989.13;4938525;29;1345;-58
2022/08/26 09:30:12;;;;;;;;;;;;;;;32.45;29.64;98996.28;4955627;29;1972;-59
2022/08/26 09:32:41;;;;;;;;;;;;;;;32.38;29.65;98993.44;4955794;29;816;-58
2022/08/26 09:35:26;;;;;;;;;;;;;;;32.42;29.48;98996.69;4938379;29;1416;-58
2022/08/26 09:37:52;;;;;;;;;;;;;;;32.14;30.00;98984.16;4955714;29;868;-58
2022/08/26 09:40:25;;;;;;;;;;;;;;;31.85;29.76;98986.41;4955604;29;832;-58
2022/08/26 09:43:09;;;;;;;;;;;;;;;31.69;30.50;98986.44;4955456;29;832;-58
2022/08/26 09:45:37;;;;;;;;;;;;;;;31.76;30.64;98992.72;4955877;29;820;-59
2022/08/26 09:48:07;;;;;;;;;;;;;;;32.03;30.35;98996.75;4955722;29;836;-59
2022/08/26 09:50:39;;;;;;;;;;;;;;;32.22;29.82;98999.22;4955269;29;1956;-59
2022/08/26 09:53:15;;;;;;;;;;;;;;;32.29;29.86;98992.69;4937795;29;1424;-59
2022/08/26 09:55:47;;;;;;;;;;;;;;;32.56;30.14;99000.84;4955342;29;857;-59
2022/08/26 09:58:32;;;;;;;;;;;;;;;32.42;30.01;98991.72;4937989;29;1174;-59
2022/08/26 10:01:00;;;;;;;;;;;;;;;31.91;30.18;98998.44;4955233;29;809;-59
2022/08/26 10:03:29;;;;;;;;;;;;;;;32.13;30.53;98999.75;4955295;29;885;-59
2022/08/26 10:05:57;;;;;;;;;;;;;;;32.61;29.35;98999.91;4937771;29;1305;-59
2022/08/26 10:08:29;;;;;;;;;;;;;;;32.47;29.40;98993.59;4955018;29;853;-58
2022/08/26 10:10:58;;;;;;;;;;;;;;;32.54;29.66;99006.41;4937678;29;1948;-58
2022/08/26 10:13:32;;;;;;;;;;;;;;;32.57;29.66;99002.41;4954928;29;829;-59
2022/08/26 10:16:04;;;;;;;;;;;;;;;32.69;29.51;98991.28;4954726;29;1438;-59
2022/08/26 10:18:34;;;;;;;;;;;;;;;33.05;28.98;99002.41;4937551;29;1378;-59
2022/08/26 10:21:08;;;;;;;;;;;;;;;32.75;29.09;98992.63;4955081;29;821;-59
2022/08/26 10:23:41;;;;;;;;;;;;;;;32.67;29.48;98991.13;4954715;29;880;-59
2022/08/26 10:26:14;;;;;;;;;;;;;;;32.54;29.49;99000.69;4954892;29;849;-59
2022/08/26 10:28:41;;;;;;;;;;;;;;;32.31;29.87;98987.16;4937364;29;1194;-59
2022/08/26 10:31:23;;;;;;;;;;;;;;;32.39;29.77;98992.09;4937218;29;1906;-59
2022/08/26 10:33:50;;;;;;;;;;;;;;;32.76;29.64;98984.78;4954493;29;871;-59
2022/08/26 10:39:10;;;;;;;;;;;;;;;32.45;29.18;98989.81;4954481;29;604;-58
2022/08/26 10:41:39;;;;;;;;;;;;;;;32.30;29.17;98984.88;4954472;29;844;-59
2022/08/26 10:44:08;;;;;;;;;;;;;;;32.19;28.98;98980.31;4937091;29;1375;-58
2022/08/26 10:46:41;;;;;;;;;;;;;;;31.85;29.76;98981.47;4954285;29;860;-59
2022/08/26 10:49:13;;;;;;;;;;;;;;;31.71;29.68;98986.63;4954233;29;1983;-59
2022/08/26 10:51:54;;;;;;;;;;;;;;;31.59;30.30;98988.31;4936949;29;1345;-59
2022/08/26 10:54:26;;;;;;;;;;;;;;;31.45;30.41;98984.09;4954206;29;841;-59
2022/08/26 10:57:06;;;;;;;;;;;;;;;31.38;30.46;98979.13;4954072;29;825;-60
2022/08/26 10:59:52;;;;;;;;;;;;;;;31.31;30.03;98980.63;4954108;29;888;-60
2022/08/26 11:02:19;;;;;;;;;;;;;;;31.11;30.80;98980.22;4954088;29;922;-60
2022/08/26 11:05:08;;;;;;;;;;;;;;;30.90;31.07;98988.13;4953483;28;884;-59
2022/08/26 11:07:45;;;;;;;;;;;;;;;30.86;30.85;98979.13;4954036;29;797;-59
2022/08/26 11:10:33;;;;;;;;;;;;;;;30.89;30.90;98989.44;4953720;29;1891;-59
2022/08/26 11:13:00;;;;;;;;;;;;;;;30.62;31.41;98975.44;4953775;29;963;-60
2022/08/26 11:15:28;;;;;;;;;;;;;;;30.30;31.51;98979.44;4936262;29;1246;-60
2022/08/26 11:18:19;;;;;;;;;;;;;;;30.02;31.89;98987.91;4936571;29;1372;-59
2022/08/26 11:21:11;;;;;;;;;;;;;;;30.00;32.30;98976.31;4936917;29;1151;-59
2022/08/26 11:23:45;;;;;;;;;;;;;;;30.01;32.42;98990.00;4953807;29;817;-59
2022/08/26 11:26:15;;;;;;;;;;;;;;;29.98;32.42;98990.34;4953789;29;907;-60
2022/08/26 11:28:47;;;;;;;;;;;;;;;29.92;32.60;98979.88;4936365;29;1298;-60
2022/08/26 11:31:40;;;;;;;;;;;;;;;29.98;32.27;98970.41;4936249;29;1969;-59
2022/08/26 11:34:11;;;;;;;;;;;;;;;29.98;32.28;98976.13;4936229;29;1324;-60
2022/08/26 11:36:47;;;;;;;;;;;;;;;29.87;32.54;98980.00;4953588;29;821;-60
2022/08/26 11:39:34;;;;;;;;;;;;;;;29.85;32.48;98972.06;4953578;29;868;-59
2022/08/26 11:42:19;;;;;;;;;;;;;;;30.13;32.52;98968.47;4953450;29;864;-59
2022/08/26 11:44:46;;;;;;;;;;;;;;;30.13;32.33;98959.91;4936234;29;1290;-60
2022/08/26 11:47:25;;;;;;;;;;;;;;;30.11;32.19;98958.94;4936184;29;1258;-60
2022/08/26 11:50:14;;;;;;;;;;;;;;;30.01;32.40;98963.63;4953540;29;1947;-59
2022/08/26 11:53:00;;;;;;;;;;;;;;;30.01;32.50;98960.78;4953247;29;1469;-60
2022/08/26 11:55:28;;;;;;;;;;;;;;;30.12;32.44;98952.66;4936159;29;1420;-59
2022/08/26 12:10:10;;;;;;;;;;;;;;;30.49;31.77;98938.47;4953658;29;1894;-59
2022/08/26 12:12:38;;;;;;;;;;;;;;;30.47;31.84;98933.34;4953392;29;786;-59
2022/08/26 12:15:09;;;;;;;;;;;;;;;30.29;31.97;98937.97;4953238;29;884;-59
2022/08/26 12:17:37;;;;;;;;;;;;;;;30.21;32.21;98933.53;4935272;29;1324;-59
2022/08/26 12:20:05;;;;;;;;;;;;;;;30.10;31.92;98932.53;4936511;29;1237;-59
2022/08/26 12:22:37;;;;;;;;;;;;;;;29.91;32.22;98932.00;4937845;29;805;-59
2022/08/26 12:25:08;;;;;;;;;;;;;;;29.91;32.33;98926.31;4937733;29;890;-59
2022/08/26 12:27:38;;;;;;;;;;;;;;;29.99;31.96;98929.22;4937739;29;830;-59
2022/08/26 12:30:06;;;;;;;;;;;;;;;29.98;31.75;98919.94;4937676;29;1974;-59
2022/08/26 12:32:33;;;;;;;;;;;;;;;29.91;31.72;98921.41;4937858;29;824;-59
2022/08/26 12:35:01;;;;;;;;;;;;;;;30.01;31.69;98915.94;4937553;29;825;-59
2022/08/26 12:37:32;;;;;;;;;;;;;;;30.25;31.48;98926.16;4937583;29;813;-58
2022/08/26 12:40:17;;;;;;;;;;;;;;;30.27;31.79;98922.75;4952208;28;1319;-59
2022/08/26 12:42:44;;;;;;;;;;;;;;;30.05;31.33;98912.75;4937487;29;813;-59
2022/08/26 12:45:10;;;;;;;;;;;;;;;29.92;31.42;98922.91;4937404;29;805;-59
2022/08/26 12:47:40;;;;;;;;;;;;;;;29.88;31.60;98922.50;4937287;29;863;-60
2022/08/26 12:50:07;;;;;;;;;;;;;;;29.88;31.63;98924.59;4937306;29;1946;-61
2022/08/26 12:52:44;;;;;;;;;;;;;;;30.03;31.86;98921.09;4937274;29;865;-60
2022/08/26 12:55:22;;;;;;;;;;;;;;;30.13;31.28;98920.03;4937246;29;884;-59
2022/08/26 12:57:49;;;;;;;;;;;;;;;30.20;31.18;98912.09;4937093;29;821;-60
2022/08/26 13:00:24;;;;;;;;;;;;;;;30.32;30.99;98913.28;4935862;29;1373;-60
2022/08/26 13:02:51;;;;;;;;;;;;;;;30.53;31.19;98910.34;4935742;29;1345;-60
2022/08/26 13:05:26;;;;;;;;;;;;;;;30.68;31.11;98921.06;4937083;29;916;-60
2022/08/26 13:08:10;;;;;;;;;;;;;;;30.70;31.06;98919.19;4952016;28;1266;-61
2022/08/26 13:10:39;;;;;;;;;;;;;;;30.62;30.88;98920.47;4936918;29;1890;-60
2022/08/26 13:13:07;;;;;;;;;;;;;;;30.51;31.02;98919.50;4937493;29;836;-60
2022/08/26 13:15:34;;;;;;;;;;;;;;;30.59;31.38;98921.59;4939167;29;1217;-61
2022/08/26 13:18:02;;;;;;;;;;;;;;;30.72;31.00;98916.50;4956365;29;876;-61
2022/08/26 13:20:28;;;;;;;;;;;;;;;30.84;30.93;98914.09;4938812;29;1479;-60
2022/08/26 13:22:55;;;;;;;;;;;;;;;31.09;30.58;98914.38;4956076;29;852;-60
2022/08/26 13:25:22;;;;;;;;;;;;;;;31.43;30.55;98918.25;4955916;29;853;-60
2022/08/26 13:27:49;;;;;;;;;;;;;;;31.31;30.64;98912.88;4955664;28;801;-60
2022/08/26 13:30:17;;;;;;;;;;;;;;;31.65;30.40;98913.88;4956304;29;1915;-60
2022/08/26 13:32:44;;;;;;;;;;;;;;;31.87;30.15;98921.66;4956023;29;840;-60
2022/08/26 13:35:11;;;;;;;;;;;;;;;31.61;30.30;98930.63;4955869;29;904;-60
2022/08/26 13:37:38;;;;;;;;;;;;;;;31.33;29.93;98918.78;4955907;29;798;-60
2022/08/26 13:40:06;;;;;;;;;;;;;;;31.28;29.88;98918.97;4955804;29;872;-60
2022/08/26 13:42:33;;;;;;;;;;;;;;;31.27;30.24;98917.44;4955716;29;888;-60
2022/08/26 13:45:00;;;;;;;;;;;;;;;31.11;30.64;98917.44;4955794;29;824;-60
2022/08/26 13:47:27;;;;;;;;;;;;;;;31.09;30.90;98917.22;4938330;29;1281;-60
2022/08/26 13:49:55;;;;;;;;;;;;;;;31.19;30.80;98910.97;4955409;29;1949;-60
2022/08/26 13:52:22;;;;;;;;;;;;;;;31.08;30.58;98918.53;4955359;29;876;-61
2022/08/26 13:54:48;;;;;;;;;;;;;;;30.88;31.03;98917.38;4955368;29;1019;-61
2022/08/26 13:57:15;;;;;;;;;;;;;;;30.79;30.94;98915.03;4955193;29;817;-61
2022/08/26 13:59:42;;;;;;;;;;;;;;;30.88;31.17;98908.06;4938096;29;1317;-60
2022/08/26 14:02:09;;;;;;;;;;;;;;;30.89;31.12;98910.31;4938028;29;1318;-61
2022/08/26 14:04:36;;;;;;;;;;;;;;;30.79;31.14;98908.53;4955263;29;835;-61
2022/08/26 14:07:03;;;;;;;;;;;;;;;30.66;31.39;98903.75;4955290;29;900;-60
2022/08/26 14:09:30;;;;;;;;;;;;;;;30.49;31.50;98909.97;4955123;29;1890;-61
2022/08/26 14:11:56;;;;;;;;;;;;;;;30.44;31.57;98903.09;4955569;29;926;-60
2022/08/26 14:14:23;;;;;;;;;;;;;;;30.26;31.54;98921.22;4937969;29;1336;-60
2022/08/26 14:16:50;;;;;;;;;;;;;;;30.06;31.51;98900.78;4934500;29;1466;-60
2022/08/26 14:19:18;;;;;;;;;;;;;;;30.03;31.77;98901.91;4934637;29;1225;-60
2022/08/26 14:21:45;;;;;;;;;;;;;;;30.06;31.87;98912.16;4935902;29;809;-60
2022/08/26 14:24:12;;;;;;;;;;;;;;;29.93;31.65;98915.88;4935841;29;814;-60
2022/08/26 14:26:39;;;;;;;;;;;;;;;29.83;32.04;98912.03;4934338;29;1281;-60
2022/08/26 14:29:07;;;;;;;;;;;;;;;29.80;32.18;98910.28;4935734;29;813;-60
2022/08/26 14:31:34;;;;;;;;;;;;;;;29.75;32.59;98905.53;4935569;29;884;-60
2022/08/26 14:34:06;;;;;;;;;;;;;;;29.63;32.61;98912.78;4935445;29;879;-60
2022/08/26 14:36:34;;;;;;;;;;;;;;;29.64;32.81;98917.19;4935410;29;821;-60
2022/08/26 14:39:10;;;;;;;;;;;;;;;29.64;33.01;98925.72;4935309;28;887;-60
2022/08/26 14:41:48;;;;;;;;;;;;;;;29.70;33.18;98921.44;4934580;29;826;-60
2022/08/26 14:44:16;;;;;;;;;;;;;;;29.62;33.28;98917.72;4935269;29;877;-59
2022/08/26 14:46:44;;;;;;;;;;;;;;;29.49;32.88;98912.88;4935138;29;797;-60
2022/08/26 14:49:11;;;;;;;;;;;;;;;29.30;32.85;98918.03;4949869;28;1891;-59
2022/08/26 14:51:38;;;;;;;;;;;;;;;29.20;32.89;98916.97;4935099;29;833;-61
2022/08/26 14:54:11;;;;;;;;;;;;;;;29.16;32.90;98916.53;4935045;29;853;-60
2022/08/26 14:57:07;;;;;;;;;;;;;;;29.13;33.13;98918.41;4949603;28;1300;-59